sensor_id;sensor_type;location;lat;lon;timestamp;pressure;altitude;pressure_sealevel;temperature;humidity
64876;BME280;51369;49.862;9.908;2023-03-22T00:01:10;98113.56;;;6.95;83.54
64876;BME280;51369;49.862;9.908;2023-03-22T00:03:36;98117.28;;;6.92;83.60
64876;BME280;51369;49.862;9.908;2023-03-22T00:06:02;98115.72;;;6.85;83.41
64876;BME280;51369;49.862;9.908;2023-03-22T00:08:27;98109.66;;;6.78;83.36
64876;BME280;51369;49.862;9.908;2023-03-22T00:10:52;98110.59;;;6.77;83.40
64876;BME280;51369;49.862;9.908;2023-03-22T00:13:18;98112.38;;;6.77;84.23
64876;BME280;51369;49.862;9.908;2023-03-22T00:15:43;98112.44;;;6.75;84.23
64876;BME280;51369;49.862;9.908;2023-03-22T00:18:12;98110.69;;;6.74;83.83
64876;BME280;51369;49.862;9.908;2023-03-22T00:20:45;98105.41;;;6.71;84.38
64876;BME280;51369;49.862;9.908;2023-03-22T00:23:12;98110.72;;;6.73;84.43
64876;BME280;51369;49.862;9.908;2023-03-22T00:25:37;98105.31;;;6.74;84.67
64876;BME280;51369;49.862;9.908;2023-03-22T00:28:02;98094.53;;;6.76;84.98
64876;BME280;51369;49.862;9.908;2023-03-22T00:30:28;98103.41;;;6.78;85.22
64876;BME280;51369;49.862;9.908;2023-03-22T00:32:53;98104.25;;;6.80;84.84
64876;BME280;51369;49.862;9.908;2023-03-22T00:35:18;98106.00;;;6.81;85.32
64876;BME280;51369;49.862;9.908;2023-03-22T00:37:46;98104.25;;;6.80;85.58
64876;BME280;51369;49.862;9.908;2023-03-22T00:40:12;98112.19;;;6.83;85.59
64876;BME280;51369;49.862;9.908;2023-03-22T00:42:39;98101.50;;;6.81;85.54
64876;BME280;51369;49.862;9.908;2023-03-22T00:45:06;98107.84;;;6.79;85.51
64876;BME280;51369;49.862;9.908;2023-03-22T00:47:32;98102.53;;;6.77;85.11
64876;BME280;51369;49.862;9.908;2023-03-22T00:49:58;98099.06;;;6.74;84.48
64876;BME280;51369;49.862;9.908;2023-03-22T00:52:24;98086.59;;;6.73;85.10
64876;BME280;51369;49.862;9.908;2023-03-22T00:54:50;98091.06;;;6.72;85.27
64876;BME280;51369;49.862;9.908;2023-03-22T00:57:17;98086.63;;;6.71;85.34
64876;BME280;51369;49.862;9.908;2023-03-22T00:59:43;98081.22;;;6.73;85.56
64876;BME280;51369;49.862;9.908;2023-03-22T01:02:09;98081.13;;;6.76;86.21
64876;BME280;51369;49.862;9.908;2023-03-22T01:04:38;98078.25;;;6.82;86.28
64876;BME280;51369;49.862;9.908;2023-03-22T01:07:04;98074.38;;;6.91;86.98
64876;BME280;51369;49.862;9.908;2023-03-22T01:09:33;98071.31;;;7.01;86.97
64876;BME280;51369;49.862;9.908;2023-03-22T01:12:00;98072.81;;;7.10;87.35
64876;BME280;51369;49.862;9.908;2023-03-22T01:14:27;98068.94;;;7.18;87.27
64876;BME280;51369;49.862;9.908;2023-03-22T01:16:53;98071.56;;;7.20;86.54
64876;BME280;51369;49.862;9.908;2023-03-22T01:19:24;98063.50;;;7.20;86.72
64876;BME280;51369;49.862;9.908;2023-03-22T01:21:51;98059.94;;;7.19;85.98
64876;BME280;51369;49.862;9.908;2023-03-22T01:24:18;98063.47;;;7.22;85.92
64876;BME280;51369;49.862;9.908;2023-03-22T01:26:43;98060.81;;;7.20;86.01
64876;BME280;51369;49.862;9.908;2023-03-22T01:29:09;98050.13;;;7.18;85.23
64876;BME280;51369;49.862;9.908;2023-03-22T01:31:34;98052.81;;;7.18;85.50
64876;BME280;51369;49.862;9.908;2023-03-22T01:34:00;98054.56;;;7.19;85.76
64876;BME280;51369;49.862;9.908;2023-03-22T01:36:27;98048.28;;;7.21;85.30
64876;BME280;51369;49.862;9.908;2023-03-22T01:38:52;98047.28;;;7.23;85.17
64876;BME280;51369;49.862;9.908;2023-03-22T01:41:19;98038.31;;;7.24;85.04
64876;BME280;51369;49.862;9.908;2023-03-22T01:44:06;98034.69;;;7.25;85.41
64876;BME280;51369;49.862;9.908;2023-03-22T01:46:31;98039.03;;;7.29;85.33
64876;BME280;51369;49.862;9.908;2023-03-22T01:48:58;98035.34;;;7.32;84.97
64876;BME280;51369;49.862;9.908;2023-03-22T01:51:24;98031.63;;;7.36;85.70
64876;BME280;51369;49.862;9.908;2023-03-22T01:54:09;98027.03;;;7.39;85.63
64876;BME280;51369;49.862;9.908;2023-03-22T01:56:38;98022.47;;;7.41;85.67
64876;BME280;51369;49.862;9.908;2023-03-22T01:59:10;98025.00;;;7.46;85.23
64876;BME280;51369;49.862;9.908;2023-03-22T02:01:53;98023.09;;;7.49;85.44
64876;BME280;51369;49.862;9.908;2023-03-22T02:04:21;98025.59;;;7.54;85.75
64876;BME280;51369;49.862;9.908;2023-03-22T02:06:52;98024.56;;;7.58;85.70
64876;BME280;51369;49.862;9.908;2023-03-22T02:09:19;98027.09;;;7.63;85.53
64876;BME280;51369;49.862;9.908;2023-03-22T02:21:04;98017.59;;;7.77;85.95
64876;BME280;51369;49.862;9.908;2023-03-22T02:23:50;98022.78;;;7.82;86.03
64876;BME280;51369;49.862;9.908;2023-03-22T02:26:49;98018.13;;;7.87;86.46
64876;BME280;51369;49.862;9.908;2023-03-22T02:29:44;98012.44;;;7.95;86.28
64876;BME280;51369;49.862;9.908;2023-03-22T02:37:48;98009.19;;;8.10;86.53
64876;BME280;51369;49.862;9.908;2023-03-22T02:40:35;98009.06;;;8.13;86.08
64876;BME280;51369;49.862;9.908;2023-03-22T02:45:48;98000.88;;;8.16;85.62
64876;BME280;51369;49.862;9.908;2023-03-22T02:50:50;98000.06;;;8.14;85.63
64876;BME280;51369;49.862;9.908;2023-03-22T02:53:26;97994.72;;;8.12;85.35
64876;BME280;51369;49.862;9.908;2023-03-22T02:56:02;97995.72;;;8.10;84.91
64876;BME280;51369;49.862;9.908;2023-03-22T02:58:39;97994.97;;;8.06;84.52
64876;BME280;51369;49.862;9.908;2023-03-22T03:01:17;97998.66;;;8.04;84.20
64876;BME280;51369;49.862;9.908;2023-03-22T03:03:45;98000.41;;;8.05;84.55
64876;BME280;51369;49.862;9.908;2023-03-22T03:06:16;97995.97;;;8.04;84.50
64876;BME280;51369;49.862;9.908;2023-03-22T03:08:43;97999.53;;;8.04;84.53
64876;BME280;51369;49.862;9.908;2023-03-22T03:11:12;97997.53;;;8.09;84.46
64876;BME280;51369;49.862;9.908;2023-03-22T03:13:37;97995.66;;;8.11;84.60
64876;BME280;51369;49.862;9.908;2023-03-22T03:16:04;98001.94;;;8.12;84.50
64876;BME280;51369;49.862;9.908;2023-03-22T03:21:27;97996.50;;;8.13;84.66
64876;BME280;51369;49.862;9.908;2023-03-22T03:24:32;97992.88;;;8.14;85.04
64876;BME280;51369;49.862;9.908;2023-03-22T03:27:31;97998.13;;;8.18;84.65
64876;BME280;51369;49.862;9.908;2023-03-22T03:30:23;97993.44;;;8.23;85.45
64876;BME280;51369;49.862;9.908;2023-03-22T03:32:57;97997.75;;;8.27;84.95
64876;BME280;51369;49.862;9.908;2023-03-22T03:35:40;98003.06;;;8.28;84.60
64876;BME280;51369;49.862;9.908;2023-03-22T03:38:12;98001.16;;;8.32;84.82
64876;BME280;51369;49.862;9.908;2023-03-22T03:40:43;98002.94;;;8.33;84.84
64876;BME280;51369;49.862;9.908;2023-03-22T03:43:10;97996.63;;;8.34;84.57
64876;BME280;51369;49.862;9.908;2023-03-22T03:45:36;98013.56;;;8.36;85.09
64876;BME280;51369;49.862;9.908;2023-03-22T03:48:08;98008.19;;;8.36;84.61
64876;BME280;51369;49.862;9.908;2023-03-22T03:50:36;98013.50;;;8.37;84.87
64876;BME280;51369;49.862;9.908;2023-03-22T03:53:04;98015.25;;;8.38;84.75
64876;BME280;51369;49.862;9.908;2023-03-22T03:55:30;98011.56;;;8.41;84.68
64876;BME280;51369;49.862;9.908;2023-03-22T03:57:56;98009.50;;;8.47;85.39
64876;BME280;51369;49.862;9.908;2023-03-22T04:00:22;98011.16;;;8.52;84.71
64876;BME280;51369;49.862;9.908;2023-03-22T04:03:06;98012.78;;;8.56;85.13
64876;BME280;51369;49.862;9.908;2023-03-22T04:05:42;98009.03;;;8.60;84.32
64876;BME280;51369;49.862;9.908;2023-03-22T04:08:08;98010.72;;;8.62;84.83
64876;BME280;51369;49.862;9.908;2023-03-22T04:10:34;98006.84;;;8.68;85.17
64876;BME280;51369;49.862;9.908;2023-03-22T04:12:59;98004.91;;;8.71;85.04
64876;BME280;51369;49.862;9.908;2023-03-22T04:15:25;98008.34;;;8.75;84.78
64876;BME280;51369;49.862;9.908;2023-03-22T04:17:54;98008.16;;;8.79;85.26
64876;BME280;51369;49.862;9.908;2023-03-22T04:20:22;97998.16;;;8.83;85.38
64876;BME280;51369;49.862;9.908;2023-03-22T04:22:51;97992.63;;;8.86;84.96
64876;BME280;51369;49.862;9.908;2023-03-22T04:25:18;97996.00;;;8.91;85.03
64876;BME280;51369;49.862;9.908;2023-03-22T04:27:54;97993.19;;;8.94;84.99
64876;BME280;51369;49.862;9.908;2023-03-22T04:30:20;97981.47;;;8.95;85.11
64876;BME280;51369;49.862;9.908;2023-03-22T04:32:58;97984.13;;;8.97;84.79
64876;BME280;51369;49.862;9.908;2023-03-22T04:35:37;97984.19;;;8.95;84.02
64876;BME280;51369;49.862;9.908;2023-03-22T04:38:03;97983.44;;;8.92;83.93
64876;BME280;51369;49.862;9.908;2023-03-22T04:40:30;97977.22;;;8.90;83.36
64876;BME280;51369;49.862;9.908;2023-03-22T04:43:16;97980.94;;;8.87;83.40
64876;BME280;51369;49.862;9.908;2023-03-22T04:45:52;97977.56;;;8.82;82.88
64876;BME280;51369;49.862;9.908;2023-03-22T04:48:22;97968.81;;;8.77;82.78
64876;BME280;51369;49.862;9.908;2023-03-22T04:50:49;97966.38;;;8.71;82.29
64876;BME280;51369;49.862;9.908;2023-03-22T04:53:20;97956.81;;;8.64;81.95
64876;BME280;51369;49.862;9.908;2023-03-22T04:55:55;97956.22;;;8.57;81.82
64876;BME280;51369;49.862;9.908;2023-03-22T04:58:23;97954.66;;;8.52;81.23
64876;BME280;51369;49.862;9.908;2023-03-22T05:00:50;97945.88;;;8.46;81.52
64876;BME280;51369;49.862;9.908;2023-03-22T05:03:18;97952.38;;;8.41;81.60
64876;BME280;51369;49.862;9.908;2023-03-22T05:05:59;97939.25;;;8.33;81.90
64876;BME280;51369;49.862;9.908;2023-03-22T05:08:35;97950.91;;;8.32;81.41
64876;BME280;51369;49.862;9.908;2023-03-22T05:11:15;97941.28;;;8.27;82.00
64876;BME280;51369;49.862;9.908;2023-03-22T05:13:46;97939.59;;;8.24;82.35
64876;BME280;51369;49.862;9.908;2023-03-22T05:16:13;97944.16;;;8.22;82.17
64876;BME280;51369;49.862;9.908;2023-03-22T05:18:47;97948.84;;;8.17;81.98
64876;BME280;51369;49.862;9.908;2023-03-22T05:21:16;97949.16;;;8.09;81.92
64876;BME280;51369;49.862;9.908;2023-03-22T05:23:47;97948.44;;;8.04;81.66
64876;BME280;51369;49.862;9.908;2023-03-22T05:26:14;97945.19;;;7.96;82.51
64876;BME280;51369;49.862;9.908;2023-03-22T05:28:41;97949.00;;;7.91;81.87
64876;BME280;51369;49.862;9.908;2023-03-22T05:31:23;97956.34;;;7.86;82.34
64876;BME280;51369;49.862;9.908;2023-03-22T05:33:56;97955.66;;;7.80;82.47
64876;BME280;51369;49.862;9.908;2023-03-22T05:36:24;97962.13;;;7.75;82.41
64876;BME280;51369;49.862;9.908;2023-03-22T05:39:07;97952.38;;;7.72;82.55
64876;BME280;51369;49.862;9.908;2023-03-22T05:41:33;97964.13;;;7.70;83.35
64876;BME280;51369;49.862;9.908;2023-03-22T05:43:59;97962.38;;;7.69;83.56
64876;BME280;51369;49.862;9.908;2023-03-22T05:46:25;97964.13;;;7.70;83.41
64876;BME280;51369;49.862;9.908;2023-03-22T05:49:20;97970.13;;;7.76;84.54
64876;BME280;51369;49.862;9.908;2023-03-22T05:51:46;97973.34;;;7.86;85.03
64876;BME280;51369;49.862;9.908;2023-03-22T05:54:13;97969.31;;;7.98;85.51
64876;BME280;51369;49.862;9.908;2023-03-22T05:56:45;97975.03;;;8.12;86.18
64876;BME280;51369;49.862;9.908;2023-03-22T05:59:11;97976.38;;;8.24;86.21
64876;BME280;51369;49.862;9.908;2023-03-22T06:01:37;97972.28;;;8.37;86.47
64876;BME280;51369;49.862;9.908;2023-03-22T06:04:11;97965.53;;;8.48;86.74
64876;BME280;51369;49.862;9.908;2023-03-22T06:06:47;97968.59;;;8.61;86.69
64876;BME280;51369;49.862;9.908;2023-03-22T06:09:32;97969.88;;;8.73;87.06
64876;BME280;51369;49.862;9.908;2023-03-22T06:11:58;97964.97;;;8.82;86.82
64876;BME280;51369;49.862;9.908;2023-03-22T06:14:24;97958.31;;;8.91;86.53
64876;BME280;51369;49.862;9.908;2023-03-22T06:16:59;97962.25;;;9.04;86.32
64876;BME280;51369;49.862;9.908;2023-03-22T06:19:25;97957.25;;;9.16;86.77
64876;BME280;51369;49.862;9.908;2023-03-22T06:21:55;97964.81;;;9.28;86.08
64876;BME280;51369;49.862;9.908;2023-03-22T06:24:23;97964.13;;;9.43;85.83
64876;BME280;51369;49.862;9.908;2023-03-22T06:26:49;97972.47;;;9.57;86.03
64876;BME280;51369;49.862;9.908;2023-03-22T06:29:15;97970.03;;;9.71;85.14
64876;BME280;51369;49.862;9.908;2023-03-22T06:31:41;97972.97;;;9.86;84.83
64876;BME280;51369;49.862;9.908;2023-03-22T06:34:07;97969.63;;;9.99;85.32
64876;BME280;51369;49.862;9.908;2023-03-22T06:36:37;97973.44;;;10.14;84.42
64876;BME280;51369;49.862;9.908;2023-03-22T06:39:22;97975.50;;;10.28;83.13
64876;BME280;51369;49.862;9.908;2023-03-22T06:41:48;97973.25;;;10.37;83.09
64876;BME280;51369;49.862;9.908;2023-03-22T06:44:13;97975.31;;;10.50;82.88
64876;BME280;51369;49.862;9.908;2023-03-22T06:47:03;97984.25;;;10.69;83.05
64876;BME280;51369;49.862;9.908;2023-03-22T06:49:44;97991.44;;;10.87;81.85
64876;BME280;51369;49.862;9.908;2023-03-22T06:52:15;97992.56;;;11.00;80.85
64876;BME280;51369;49.862;9.908;2023-03-22T06:54:40;97991.97;;;11.13;80.83
64876;BME280;51369;49.862;9.908;2023-03-22T06:57:06;97987.81;;;11.23;79.71
64876;BME280;51369;49.862;9.908;2023-03-22T06:59:31;97990.94;;;11.32;79.78
64876;BME280;51369;49.862;9.908;2023-03-22T07:01:57;97987.91;;;11.38;79.61
64876;BME280;51369;49.862;9.908;2023-03-22T07:04:23;98000.22;;;11.44;79.61
64876;BME280;51369;49.862;9.908;2023-03-22T07:06:50;97991.88;;;11.49;79.33
64876;BME280;51369;49.862;9.908;2023-03-22T07:09:16;97991.63;;;11.53;77.99
64876;BME280;51369;49.862;9.908;2023-03-22T07:11:44;97981.47;;;11.58;78.50
64876;BME280;51369;49.862;9.908;2023-03-22T07:14:09;97983.75;;;11.66;77.55
64876;BME280;51369;49.862;9.908;2023-03-22T07:17:01;97982.25;;;11.78;77.33
64876;BME280;51369;49.862;9.908;2023-03-22T07:19:28;97978.97;;;11.88;76.76
64876;BME280;51369;49.862;9.908;2023-03-22T07:21:53;97982.75;;;12.01;77.46
64876;BME280;51369;49.862;9.908;2023-03-22T07:24:20;97982.84;;;12.16;77.17
64876;BME280;51369;49.862;9.908;2023-03-22T07:26:45;97975.16;;;12.24;76.51
64876;BME280;51369;49.862;9.908;2023-03-22T07:29:16;97971.25;;;12.29;76.18
64876;BME280;51369;49.862;9.908;2023-03-22T07:31:41;97978.31;;;12.32;75.59
64876;BME280;51369;49.862;9.908;2023-03-22T07:34:30;97979.91;;;12.36;76.00
64876;BME280;51369;49.862;9.908;2023-03-22T07:37:02;97974.31;;;12.39;74.75
64876;BME280;51369;49.862;9.908;2023-03-22T07:39:28;97982.97;;;12.46;75.82
64876;BME280;51369;49.862;9.908;2023-03-22T07:41:54;97967.41;;;12.49;75.19
64876;BME280;51369;49.862;9.908;2023-03-22T07:44:24;97972.66;;;12.52;75.68
64876;BME280;51369;49.862;9.908;2023-03-22T07:47:15;97974.94;;;12.60;75.31
64876;BME280;51369;49.862;9.908;2023-03-22T07:49:45;97975.63;;;12.63;75.12
64876;BME280;51369;49.862;9.908;2023-03-22T07:52:17;97975.38;;;12.68;74.88
64876;BME280;51369;49.862;9.908;2023-03-22T07:54:43;97980.59;;;12.71;74.45
64876;BME280;51369;49.862;9.908;2023-03-22T07:57:08;97976.94;;;12.72;74.74
64876;BME280;51369;49.862;9.908;2023-03-22T07:59:39;97967.75;;;12.75;74.12
64876;BME280;51369;49.862;9.908;2023-03-22T08:02:05;97969.34;;;12.79;73.80
64876;BME280;51369;49.862;9.908;2023-03-22T08:04:38;97971.78;;;12.83;74.17
64876;BME280;51369;49.862;9.908;2023-03-22T08:07:14;97968.78;;;12.88;73.77
64876;BME280;51369;49.862;9.908;2023-03-22T08:09:43;97963.09;;;12.92;73.60
64876;BME280;51369;49.862;9.908;2023-03-22T08:12:09;97959.16;;;12.98;73.90
64876;BME280;51369;49.862;9.908;2023-03-22T08:14:35;97956.97;;;13.04;73.73
64876;BME280;51369;49.862;9.908;2023-03-22T08:17:06;97963.00;;;13.10;72.58
64876;BME280;51369;49.862;9.908;2023-03-22T08:19:32;97969.81;;;13.17;72.28
64876;BME280;51369;49.862;9.908;2023-03-22T08:21:58;97974.69;;;13.26;71.93
64876;BME280;51369;49.862;9.908;2023-03-22T08:24:43;97976.06;;;13.33;70.83
64876;BME280;51369;49.862;9.908;2023-03-22T08:27:18;97968.53;;;13.38;71.65
64876;BME280;51369;49.862;9.908;2023-03-22T08:29:47;97975.44;;;13.44;70.73
64876;BME280;51369;49.862;9.908;2023-03-22T08:32:14;97974.09;;;13.51;69.69
64876;BME280;51369;49.862;9.908;2023-03-22T08:34:41;97979.13;;;13.57;70.10
64876;BME280;51369;49.862;9.908;2023-03-22T08:37:08;97970.63;;;13.63;70.48
64876;BME280;51369;49.862;9.908;2023-03-22T08:39:35;97964.81;;;13.69;69.06
64876;BME280;51369;49.862;9.908;2023-03-22T08:42:21;97966.19;;;13.76;68.82
64876;BME280;51369;49.862;9.908;2023-03-22T08:44:46;97966.69;;;13.83;68.84
64876;BME280;51369;49.862;9.908;2023-03-22T08:47:12;97965.19;;;13.91;69.29
64876;BME280;51369;49.862;9.908;2023-03-22T08:49:39;97977.22;;;14.01;68.99
64876;BME280;51369;49.862;9.908;2023-03-22T08:52:13;97966.66;;;14.11;68.95
64876;BME280;51369;49.862;9.908;2023-03-22T08:54:49;97964.81;;;14.26;68.57
64876;BME280;51369;49.862;9.908;2023-03-22T08:57:36;97977.41;;;14.41;68.39
64876;BME280;51369;49.862;9.908;2023-03-22T09:00:21;97971.22;;;14.53;67.99
64876;BME280;51369;49.862;9.908;2023-03-22T09:03:11;97959.25;;;14.70;68.00
64876;BME280;51369;49.862;9.908;2023-03-22T09:05:38;97959.00;;;14.87;68.14
64876;BME280;51369;49.862;9.908;2023-03-22T09:08:05;97950.91;;;15.00;67.43
64876;BME280;51369;49.862;9.908;2023-03-22T09:10:38;97951.72;;;15.15;66.64
64876;BME280;51369;49.862;9.908;2023-03-22T09:13:04;97957.28;;;15.26;65.09
64876;BME280;51369;49.862;9.908;2023-03-22T09:15:30;97951.88;;;15.39;65.36
64876;BME280;51369;49.862;9.908;2023-03-22T09:18:11;97948.97;;;15.54;65.90
64876;BME280;51369;49.862;9.908;2023-03-22T09:20:37;97949.75;;;15.69;65.32
64876;BME280;51369;49.862;9.908;2023-03-22T09:23:05;97945.94;;;15.84;64.55
64876;BME280;51369;49.862;9.908;2023-03-22T09:25:31;97935.16;;;15.95;63.89
64876;BME280;51369;49.862;9.908;2023-03-22T09:27:56;97936.59;;;16.01;63.58
64876;BME280;51369;49.862;9.908;2023-03-22T09:30:22;97934.63;;;16.03;63.43
64876;BME280;51369;49.862;9.908;2023-03-22T09:32:48;97930.81;;;16.06;63.52
64876;BME280;51369;49.862;9.908;2023-03-22T09:35:15;97929.72;;;16.08;62.63
64876;BME280;51369;49.862;9.908;2023-03-22T09:37:57;97925.47;;;16.17;62.69
64876;BME280;51369;49.862;9.908;2023-03-22T09:40:29;97928.28;;;16.28;63.80
64876;BME280;51369;49.862;9.908;2023-03-22T09:42:59;97919.44;;;16.37;62.00
64876;BME280;51369;49.862;9.908;2023-03-22T09:45:35;97920.72;;;16.44;61.38
64876;BME280;51369;49.862;9.908;2023-03-22T09:48:28;97931.16;;;16.50;61.96
64876;BME280;51369;49.862;9.908;2023-03-22T09:50:55;97925.78;;;16.62;60.93
64876;BME280;51369;49.862;9.908;2023-03-22T09:53:23;97916.50;;;16.77;61.92
64876;BME280;51369;49.862;9.908;2023-03-22T09:56:08;97912.75;;;16.90;61.65
64876;BME280;51369;49.862;9.908;2023-03-22T09:58:44;97915.28;;;17.05;60.61
64876;BME280;51369;49.862;9.908;2023-03-22T10:01:19;97902.56;;;17.16;59.50
64876;BME280;51369;49.862;9.908;2023-03-22T10:06:36;97908.03;;;17.16;59.10
64876;BME280;51369;49.862;9.908;2023-03-22T10:09:08;97902.81;;;17.13;59.25
64876;BME280;51369;49.862;9.908;2023-03-22T10:12:00;97897.34;;;17.13;58.75
64876;BME280;51369;49.862;9.908;2023-03-22T10:14:41;97899.72;;;17.18;58.89
64876;BME280;51369;49.862;9.908;2023-03-22T10:17:18;97897.16;;;17.28;59.81
64876;BME280;51369;49.862;9.908;2023-03-22T10:19:53;97904.34;;;17.29;58.99
64876;BME280;51369;49.862;9.908;2023-03-22T10:22:23;97901.63;;;17.29;59.85
64876;BME280;51369;49.862;9.908;2023-03-22T10:24:52;97908.94;;;17.28;59.48
64876;BME280;51369;49.862;9.908;2023-03-22T10:27:20;97904.47;;;17.27;59.40
64876;BME280;51369;49.862;9.908;2023-03-22T10:30:18;97898.22;;;17.14;59.06
64876;BME280;51369;49.862;9.908;2023-03-22T10:32:56;97901.53;;;17.06;58.36
64876;BME280;51369;49.862;9.908;2023-03-22T10:35:24;97897.31;;;17.02;59.02
64876;BME280;51369;49.862;9.908;2023-03-22T10:37:50;97899.75;;;16.94;58.82
64876;BME280;51369;49.862;9.908;2023-03-22T10:40:24;97896.38;;;16.90;59.07
64876;BME280;51369;49.862;9.908;2023-03-22T10:42:58;97888.84;;;16.94;59.90
64876;BME280;51369;49.862;9.908;2023-03-22T10:45:25;97899.41;;;16.99;59.59
64876;BME280;51369;49.862;9.908;2023-03-22T10:48:01;97889.34;;;16.99;59.50
64876;BME280;51369;49.862;9.908;2023-03-22T10:50:33;97901.13;;;17.00;58.92
64876;BME280;51369;49.862;9.908;2023-03-22T10:55:44;97875.72;;;16.99;58.37
64876;BME280;51369;49.862;9.908;2023-03-22T10:58:19;97889.25;;;17.01;58.22
64876;BME280;51369;49.862;9.908;2023-03-22T11:00:46;97893.59;;;17.03;58.42
64876;BME280;51369;49.862;9.908;2023-03-22T11:03:35;97888.25;;;17.02;57.46
64876;BME280;51369;49.862;9.908;2023-03-22T11:08:53;97880.88;;;17.15;56.82
64876;BME280;51369;49.862;9.908;2023-03-22T11:11:29;97873.59;;;17.27;57.22
64876;BME280;51369;49.862;9.908;2023-03-22T11:13:58;97871.75;;;17.38;57.44
64876;BME280;51369;49.862;9.908;2023-03-22T11:16:24;97871.88;;;17.48;57.30
64876;BME280;51369;49.862;9.908;2023-03-22T11:18:50;97869.28;;;17.57;59.96
64876;BME280;51369;49.862;9.908;2023-03-22T11:21:17;97870.16;;;17.58;58.58
64876;BME280;51369;49.862;9.908;2023-03-22T11:24:04;97861.63;;;17.63;57.55
64876;BME280;51369;49.862;9.908;2023-03-22T11:26:33;97857.44;;;17.70;56.51
64876;BME280;51369;49.862;9.908;2023-03-22T11:29:25;97861.69;;;17.85;57.22
64876;BME280;51369;49.862;9.908;2023-03-22T11:31:58;97861.19;;;18.13;56.80
64876;BME280;51369;49.862;9.908;2023-03-22T11:34:29;97855.81;;;18.45;56.36
64876;BME280;51369;49.862;9.908;2023-03-22T11:36:58;97852.06;;;18.69;56.85
64876;BME280;51369;49.862;9.908;2023-03-22T11:39:26;97855.16;;;18.75;54.63
64876;BME280;51369;49.862;9.908;2023-03-22T11:41:55;97859.63;;;18.76;54.72
64876;BME280;51369;49.862;9.908;2023-03-22T11:44:25;97857.75;;;18.77;53.77
64876;BME280;51369;49.862;9.908;2023-03-22T11:46:56;97845.03;;;18.87;54.65
64876;BME280;51369;49.862;9.908;2023-03-22T11:49:49;97836.38;;;19.03;53.75
64876;BME280;51369;49.862;9.908;2023-03-22T11:52:24;97833.38;;;19.27;53.34
64876;BME280;51369;49.862;9.908;2023-03-22T11:54:51;97836.72;;;19.51;54.63
64876;BME280;51369;49.862;9.908;2023-03-22T11:57:29;97835.75;;;19.73;53.12
64876;BME280;51369;49.862;9.908;2023-03-22T11:59:59;97832.81;;;19.95;52.88
64876;BME280;51369;49.862;9.908;2023-03-22T12:02:29;97829.72;;;20.09;52.32
64876;BME280;51369;49.862;9.908;2023-03-22T12:05:27;97813.59;;;20.16;52.73
64876;BME280;51369;49.862;9.908;2023-03-22T12:07:57;97826.16;;;20.19;53.42
64876;BME280;51369;49.862;9.908;2023-03-22T12:10:37;97820.06;;;20.15;53.03
64876;BME280;51369;49.862;9.908;2023-03-22T12:13:08;97820.53;;;20.20;52.89
64876;BME280;51369;49.862;9.908;2023-03-22T12:15:41;97814.34;;;20.28;52.42
64876;BME280;51369;49.862;9.908;2023-03-22T12:18:16;97803.81;;;20.33;51.96
64876;BME280;51369;49.862;9.908;2023-03-22T12:20:53;97812.63;;;20.27;54.94
64876;BME280;51369;49.862;9.908;2023-03-22T12:23:28;97807.69;;;20.21;51.64
64876;BME280;51369;49.862;9.908;2023-03-22T12:25:59;97805.25;;;20.27;52.07
64876;BME280;51369;49.862;9.908;2023-03-22T12:28:35;97802.69;;;20.35;50.88
64876;BME280;51369;49.862;9.908;2023-03-22T12:31:05;97808.94;;;20.47;52.40
64876;BME280;51369;49.862;9.908;2023-03-22T12:33:57;97804.47;;;20.46;51.23
64876;BME280;51369;49.862;9.908;2023-03-22T12:36:40;97796.13;;;20.57;55.12
64876;BME280;51369;49.862;9.908;2023-03-22T12:39:21;97802.91;;;20.53;54.77
64876;BME280;51369;49.862;9.908;2023-03-22T12:41:49;97789.44;;;20.40;51.80
64876;BME280;51369;49.862;9.908;2023-03-22T12:44:36;97794.22;;;20.38;51.78
64876;BME280;51369;49.862;9.908;2023-03-22T12:47:08;97795.25;;;20.47;52.81
64876;BME280;51369;49.862;9.908;2023-03-22T12:49:40;97792.22;;;20.50;51.50
64876;BME280;51369;49.862;9.908;2023-03-22T12:52:12;97780.81;;;20.55;51.81
64876;BME280;51369;49.862;9.908;2023-03-22T12:54:40;97787.59;;;20.60;53.91
64876;BME280;51369;49.862;9.908;2023-03-22T12:57:07;97781.69;;;20.55;53.21
64876;BME280;51369;49.862;9.908;2023-03-22T12:59:32;97772.59;;;20.64;51.79
64876;BME280;51369;49.862;9.908;2023-03-22T13:02:11;97780.81;;;20.84;52.42
64876;BME280;51369;49.862;9.908;2023-03-22T13:07:34;97773.59;;;21.02;50.85
64876;BME280;51369;49.862;9.908;2023-03-22T13:21:13;97772.66;;;21.59;57.20
64876;BME280;51369;49.862;9.908;2023-03-22T13:26:22;97773.38;;;21.61;51.23
64876;BME280;51369;49.862;9.908;2023-03-22T13:29:00;97773.97;;;21.55;48.59
64876;BME280;51369;49.862;9.908;2023-03-22T13:31:45;97776.44;;;21.58;49.17
64876;BME280;51369;49.862;9.908;2023-03-22T13:34:46;97763.72;;;21.57;48.95
64876;BME280;51369;49.862;9.908;2023-03-22T13:37:27;97769.34;;;21.56;52.57
64876;BME280;51369;49.862;9.908;2023-03-22T13:39:56;97765.34;;;21.40;49.17
64876;BME280;51369;49.862;9.908;2023-03-22T13:42:35;97760.13;;;21.18;48.20
64876;BME280;51369;49.862;9.908;2023-03-22T13:45:07;97751.06;;;21.08;48.23
64876;BME280;51369;49.862;9.908;2023-03-22T13:47:42;97740.78;;;21.10;49.49
64876;BME280;51369;49.862;9.908;2023-03-22T13:50:17;97741.09;;;21.07;48.10
64876;BME280;51369;49.862;9.908;2023-03-22T13:52:57;97737.75;;;21.03;46.99
64876;BME280;51369;49.862;9.908;2023-03-22T14:00:54;97733.59;;;20.90;49.09
64876;BME280;51369;49.862;9.908;2023-03-22T14:03:31;97719.34;;;20.76;49.46
64876;BME280;51369;49.862;9.908;2023-03-22T14:06:06;97724.53;;;20.70;50.15
64876;BME280;51369;49.862;9.908;2023-03-22T14:08:35;97729.16;;;20.60;49.88
64876;BME280;51369;49.862;9.908;2023-03-22T14:11:20;97723.94;;;20.47;49.86
64876;BME280;51369;49.862;9.908;2023-03-22T14:13:53;97716.44;;;20.39;49.60
64876;BME280;51369;49.862;9.908;2023-03-22T14:16:32;97718.97;;;20.31;50.34
64876;BME280;51369;49.862;9.908;2023-03-22T14:18:59;97721.28;;;20.26;51.96
64876;BME280;51369;49.862;9.908;2023-03-22T14:21:31;97717.66;;;20.16;49.99
64876;BME280;51369;49.862;9.908;2023-03-22T14:23:59;97723.41;;;20.13;49.33